sensor_id;sensor_type;location;lat;lon;timestamp;P1;durP1;ratioP1;P2;durP2;ratioP2
6374;SDS011;35400;45.472;-122.822;2022-07-22T00:00:21;3.65;;;1.80;;
6374;SDS011;35400;45.472;-122.822;2022-07-22T00:02:47;2.20;;;2.03;;
6374;SDS011;35400;45.472;-122.822;2022-07-22T00:05:14;3.15;;;2.17;;
6374;SDS011;35400;45.472;-122.822;2022-07-22T00:07:40;2.63;;;1.55;;
6374;SDS011;35400;45.472;-122.822;2022-07-22T00:10:07;2.75;;;1.50;;
6374;SDS011;35400;45.472;-122.822;2022-07-22T00:12:36;2.05;;;1.90;;
6374;SDS011;35400;45.472;-122.822;2022-07-22T00:15:04;3.00;;;1.95;;
6374;SDS011;35400;45.472;-122.822;2022-07-22T00:17:32;2.00;;;1.90;;
6374;SDS011;35400;45.472;-122.822;2022-07-22T00:19:58;3.88;;;1.90;;
6374;SDS011;35400;45.472;-122.822;2022-07-22T00:22:25;4.70;;;2.30;;
6374;SDS011;35400;45.472;-122.822;2022-07-22T00:24:51;2.00;;;1.80;;
6374;SDS011;35400;45.472;-122.822;2022-07-22T00:27:17;4.18;;;2.30;;
6374;SDS011;35400;45.472;-122.822;2022-07-22T00:29:44;2.22;;;2.03;;
6374;SDS011;35400;45.472;-122.822;2022-07-22T00:32:10;2.35;;;2.08;;
6374;SDS011;35400;45.472;-122.822;2022-07-22T00:34:37;2.65;;;1.88;;
6374;SDS011;35400;45.472;-122.822;2022-07-22T00:37:03;3.42;;;1.77;;
6374;SDS011;35400;45.472;-122.822;2022-07-22T00:39:31;3.70;;;1.80;;
6374;SDS011;35400;45.472;-122.822;2022-07-22T00:41:58;6.10;;;1.92;;
6374;SDS011;35400;45.472;-122.822;2022-07-22T00:44:25;3.22;;;1.80;;
6374;SDS011;35400;45.472;-122.822;2022-07-22T00:46:52;2.92;;;1.90;;
6374;SDS011;35400;45.472;-122.822;2022-07-22T00:49:18;3.10;;;2.80;;
6374;SDS011;35400;45.472;-122.822;2022-07-22T00:51:45;4.43;;;2.90;;
6374;SDS011;35400;45.472;-122.822;2022-07-22T00:54:12;4.60;;;2.60;;
6374;SDS011;35400;45.472;-122.822;2022-07-22T00:56:39;4.65;;;2.97;;
6374;SDS011;35400;45.472;-122.822;2022-07-22T00:59:07;4.70;;;2.58;;
6374;SDS011;35400;45.472;-122.822;2022-07-22T01:01:35;3.47;;;3.10;;
6374;SDS011;35400;45.472;-122.822;2022-07-22T01:04:02;2.92;;;2.60;;
6374;SDS011;35400;45.472;-122.822;2022-07-22T01:06:29;4.28;;;2.80;;
6374;SDS011;35400;45.472;-122.822;2022-07-22T01:08:56;2.90;;;2.70;;
6374;SDS011;35400;45.472;-122.822;2022-07-22T01:11:23;3.58;;;2.40;;
6374;SDS011;35400;45.472;-122.822;2022-07-22T01:13:50;3.63;;;2.50;;
6374;SDS011;35400;45.472;-122.822;2022-07-22T01:16:18;4.70;;;3.10;;
6374;SDS011;35400;45.472;-122.822;2022-07-22T01:18:45;4.70;;;2.80;;
6374;SDS011;35400;45.472;-122.822;2022-07-22T01:21:11;3.03;;;2.55;;
6374;SDS011;35400;45.472;-122.822;2022-07-22T01:23:40;2.40;;;2.30;;
6374;SDS011;35400;45.472;-122.822;2022-07-22T01:26:06;4.10;;;2.63;;
6374;SDS011;35400;45.472;-122.822;2022-07-22T01:28:33;2.10;;;2.00;;
6374;SDS011;35400;45.472;-122.822;2022-07-22T01:30:59;3.63;;;2.42;;
6374;SDS011;35400;45.472;-122.822;2022-07-22T01:33:26;3.97;;;2.40;;
6374;SDS011;35400;45.472;-122.822;2022-07-22T01:35:53;3.60;;;2.50;;
6374;SDS011;35400;45.472;-122.822;2022-07-22T01:38:19;5.20;;;2.90;;
6374;SDS011;35400;45.472;-122.822;2022-07-22T01:40:46;2.92;;;2.47;;
6374;SDS011;35400;45.472;-122.822;2022-07-22T01:43:12;3.25;;;2.78;;
6374;SDS011;35400;45.472;-122.822;2022-07-22T01:45:45;3.03;;;2.58;;
6374;SDS011;35400;45.472;-122.822;2022-07-22T01:48:13;3.00;;;2.38;;
6374;SDS011;35400;45.472;-122.822;2022-07-22T01:50:40;5.30;;;2.83;;
6374;SDS011;35400;45.472;-122.822;2022-07-22T01:53:07;3.35;;;2.50;;
6374;SDS011;35400;45.472;-122.822;2022-07-22T01:55:33;6.25;;;2.55;;
6374;SDS011;35400;45.472;-122.822;2022-07-22T01:58:00;4.03;;;2.25;;
6374;SDS011;35400;45.472;-122.822;2022-07-22T02:00:29;3.17;;;2.65;;
6374;SDS011;35400;45.472;-122.822;2022-07-22T02:02:56;3.20;;;2.65;;
6374;SDS011;35400;45.472;-122.822;2022-07-22T02:05:23;2.75;;;2.42;;
6374;SDS011;35400;45.472;-122.822;2022-07-22T02:07:50;2.25;;;2.15;;
6374;SDS011;35400;45.472;-122.822;2022-07-22T02:10:16;4.45;;;2.60;;
6374;SDS011;35400;45.472;-122.822;2022-07-22T02:12:43;2.42;;;2.22;;
6374;SDS011;35400;45.472;-122.822;2022-07-22T02:15:10;2.33;;;2.00;;
6374;SDS011;35400;45.472;-122.822;2022-07-22T02:17:36;2.90;;;2.70;;
6374;SDS011;35400;45.472;-122.822;2022-07-22T02:20:03;2.55;;;2.22;;
6374;SDS011;35400;45.472;-122.822;2022-07-22T02:22:29;4.70;;;2.58;;
6374;SDS011;35400;45.472;-122.822;2022-07-22T02:24:56;4.47;;;2.45;;
6374;SDS011;35400;45.472;-122.822;2022-07-22T02:27:22;3.58;;;2.67;;
6374;SDS011;35400;45.472;-122.822;2022-07-22T02:29:49;2.95;;;2.08;;
6374;SDS011;35400;45.472;-122.822;2022-07-22T02:32:15;2.88;;;2.60;;
6374;SDS011;35400;45.472;-122.822;2022-07-22T02:34:41;3.92;;;2.13;;
6374;SDS011;35400;45.472;-122.822;2022-07-22T02:37:08;3.70;;;2.47;;
6374;SDS011;35400;45.472;-122.822;2022-07-22T02:39:34;3.03;;;2.28;;
6374;SDS011;35400;45.472;-122.822;2022-07-22T02:42:01;3.35;;;2.38;;
6374;SDS011;35400;45.472;-122.822;2022-07-22T02:44:27;3.63;;;2.30;;
6374;SDS011;35400;45.472;-122.822;2022-07-22T02:46:53;4.18;;;3.22;;
6374;SDS011;35400;45.472;-122.822;2022-07-22T02:49:20;5.30;;;2.75;;
6374;SDS011;35400;45.472;-122.822;2022-07-22T02:51:46;3.88;;;2.70;;
6374;SDS011;35400;45.472;-122.822;2022-07-22T02:54:13;5.80;;;4.10;;
6374;SDS011;35400;45.472;-122.822;2022-07-22T02:56:39;6.78;;;5.40;;
6374;SDS011;35400;45.472;-122.822;2022-07-22T02:59:06;4.13;;;3.40;;
6374;SDS011;35400;45.472;-122.822;2022-07-22T03:01:32;3.33;;;2.45;;
6374;SDS011;35400;45.472;-122.822;2022-07-22T03:03:59;2.75;;;2.40;;
6374;SDS011;35400;45.472;-122.822;2022-07-22T03:06:25;3.30;;;2.33;;
6374;SDS011;35400;45.472;-122.822;2022-07-22T03:08:52;4.50;;;2.22;;
6374;SDS011;35400;45.472;-122.822;2022-07-22T03:11:18;5.25;;;2.42;;
6374;SDS011;35400;45.472;-122.822;2022-07-22T03:13:45;3.38;;;2.00;;
6374;SDS011;35400;45.472;-122.822;2022-07-22T03:16:11;5.13;;;2.50;;
6374;SDS011;35400;45.472;-122.822;2022-07-22T03:18:38;3.13;;;2.15;;
6374;SDS011;35400;45.472;-122.822;2022-07-22T03:21:04;2.53;;;2.20;;
6374;SDS011;35400;45.472;-122.822;2022-07-22T03:23:31;5.93;;;2.75;;
6374;SDS011;35400;45.472;-122.822;2022-07-22T03:25:57;2.40;;;2.20;;
6374;SDS011;35400;45.472;-122.822;2022-07-22T03:28:23;2.72;;;2.35;;
6374;SDS011;35400;45.472;-122.822;2022-07-22T03:30:50;3.65;;;2.05;;
6374;SDS011;35400;45.472;-122.822;2022-07-22T03:33:17;3.13;;;2.13;;
6374;SDS011;35400;45.472;-122.822;2022-07-22T03:35:43;3.00;;;2.03;;
6374;SDS011;35400;45.472;-122.822;2022-07-22T03:38:10;3.83;;;2.15;;
6374;SDS011;35400;45.472;-122.822;2022-07-22T03:40:36;4.28;;;2.28;;
6374;SDS011;35400;45.472;-122.822;2022-07-22T03:43:03;3.22;;;2.22;;
6374;SDS011;35400;45.472;-122.822;2022-07-22T03:45:29;3.30;;;1.92;;
6374;SDS011;35400;45.472;-122.822;2022-07-22T03:47:56;2.85;;;2.17;;
6374;SDS011;35400;45.472;-122.822;2022-07-22T03:50:23;3.42;;;2.17;;
6374;SDS011;35400;45.472;-122.822;2022-07-22T03:52:50;3.20;;;2.28;;
6374;SDS011;35400;45.472;-122.822;2022-07-22T03:55:17;2.55;;;2.20;;
6374;SDS011;35400;45.472;-122.822;2022-07-22T03:57:43;6.35;;;2.50;;
6374;SDS011;35400;45.472;-122.822;2022-07-22T04:00:10;3.28;;;2.20;;
6374;SDS011;35400;45.472;-122.822;2022-07-22T04:02:36;3.67;;;2.28;;
6374;SDS011;35400;45.472;-122.822;2022-07-22T04:05:03;3.40;;;2.30;;
6374;SDS011;35400;45.472;-122.822;2022-07-22T04:07:30;3.97;;;2.10;;
6374;SDS011;35400;45.472;-122.822;2022-07-22T04:09:57;2.78;;;2.22;;
6374;SDS011;35400;45.472;-122.822;2022-07-22T04:12:36;2.35;;;2.15;;
6374;SDS011;35400;45.472;-122.822;2022-07-22T04:15:04;2.05;;;1.65;;
6374;SDS011;35400;45.472;-122.822;2022-07-22T04:17:32;3.17;;;2.03;;
6374;SDS011;35400;45.472;-122.822;2022-07-22T04:19:58;2.47;;;1.95;;
6374;SDS011;35400;45.472;-122.822;2022-07-22T04:22:26;3.60;;;1.90;;
6374;SDS011;35400;45.472;-122.822;2022-07-22T04:24:53;3.90;;;2.38;;
6374;SDS011;35400;45.472;-122.822;2022-07-22T04:27:20;4.28;;;2.05;;
6374;SDS011;35400;45.472;-122.822;2022-07-22T04:29:49;4.28;;;2.20;;
6374;SDS011;35400;45.472;-122.822;2022-07-22T04:32:15;3.75;;;2.40;;
6374;SDS011;35400;45.472;-122.822;2022-07-22T04:34:42;2.30;;;2.08;;
6374;SDS011;35400;45.472;-122.822;2022-07-22T04:37:08;4.43;;;1.90;;
6374;SDS011;35400;45.472;-122.822;2022-07-22T04:39:35;2.97;;;2.10;;
6374;SDS011;35400;45.472;-122.822;2022-07-22T04:42:01;3.65;;;1.90;;
6374;SDS011;35400;45.472;-122.822;2022-07-22T04:44:27;4.20;;;2.40;;
6374;SDS011;35400;45.472;-122.822;2022-07-22T04:46:54;2.22;;;1.80;;
6374;SDS011;35400;45.472;-122.822;2022-07-22T04:49:20;3.33;;;2.08;;
6374;SDS011;35400;45.472;-122.822;2022-07-22T04:51:47;3.10;;;1.80;;
6374;SDS011;35400;45.472;-122.822;2022-07-22T04:54:13;4.07;;;2.05;;
6374;SDS011;35400;45.472;-122.822;2022-07-22T04:56:40;2.38;;;1.50;;
6374;SDS011;35400;45.472;-122.822;2022-07-22T04:59:06;3.95;;;2.00;;
6374;SDS011;35400;45.472;-122.822;2022-07-22T05:01:32;2.08;;;1.70;;
6374;SDS011;35400;45.472;-122.822;2022-07-22T05:03:59;2.78;;;2.40;;
6374;SDS011;35400;45.472;-122.822;2022-07-22T05:06:25;4.25;;;2.15;;
6374;SDS011;35400;45.472;-122.822;2022-07-22T05:08:52;3.72;;;1.90;;
6374;SDS011;35400;45.472;-122.822;2022-07-22T05:11:18;2.78;;;1.60;;
6374;SDS011;35400;45.472;-122.822;2022-07-22T05:13:45;2.78;;;1.80;;
6374;SDS011;35400;45.472;-122.822;2022-07-22T05:16:11;3.97;;;1.65;;
6374;SDS011;35400;45.472;-122.822;2022-07-22T05:18:38;2.13;;;1.70;;
6374;SDS011;35400;45.472;-122.822;2022-07-22T05:21:04;4.05;;;1.73;;
6374;SDS011;35400;45.472;-122.822;2022-07-22T05:23:31;2.22;;;1.67;;
6374;SDS011;35400;45.472;-122.822;2022-07-22T05:25:58;2.60;;;1.70;;
6374;SDS011;35400;45.472;-122.822;2022-07-22T05:28:24;2.08;;;1.85;;
6374;SDS011;35400;45.472;-122.822;2022-07-22T05:30:51;3.20;;;1.88;;
6374;SDS011;35400;45.472;-122.822;2022-07-22T05:33:17;2.22;;;1.85;;
6374;SDS011;35400;45.472;-122.822;2022-07-22T05:35:43;2.92;;;1.88;;
6374;SDS011;35400;45.472;-122.822;2022-07-22T05:38:10;3.95;;;2.33;;
6374;SDS011;35400;45.472;-122.822;2022-07-22T05:40:36;2.75;;;1.70;;
6374;SDS011;35400;45.472;-122.822;2022-07-22T05:43:03;3.15;;;2.10;;
6374;SDS011;35400;45.472;-122.822;2022-07-22T05:45:30;3.42;;;1.48;;
6374;SDS011;35400;45.472;-122.822;2022-07-22T05:47:56;2.78;;;1.60;;
6374;SDS011;35400;45.472;-122.822;2022-07-22T05:50:22;2.97;;;1.80;;
6374;SDS011;35400;45.472;-122.822;2022-07-22T05:52:49;3.80;;;1.90;;
6374;SDS011;35400;45.472;-122.822;2022-07-22T05:55:15;3.47;;;1.70;;
6374;SDS011;35400;45.472;-122.822;2022-07-22T05:57:42;2.65;;;1.75;;
6374;SDS011;35400;45.472;-122.822;2022-07-22T06:00:08;3.33;;;1.90;;
6374;SDS011;35400;45.472;-122.822;2022-07-22T06:02:35;2.57;;;1.60;;
6374;SDS011;35400;45.472;-122.822;2022-07-22T06:05:02;3.00;;;1.50;;
6374;SDS011;35400;45.472;-122.822;2022-07-22T06:07:28;2.20;;;1.50;;
6374;SDS011;35400;45.472;-122.822;2022-07-22T06:09:55;2.50;;;1.87;;
6374;SDS011;35400;45.472;-122.822;2022-07-22T06:12:21;1.83;;;1.40;;
6374;SDS011;35400;45.472;-122.822;2022-07-22T06:14:48;2.30;;;1.60;;
6374;SDS011;35400;45.472;-122.822;2022-07-22T06:17:14;2.10;;;1.60;;
6374;SDS011;35400;45.472;-122.822;2022-07-22T06:19:41;6.33;;;1.80;;
6374;SDS011;35400;45.472;-122.822;2022-07-22T06:22:07;2.63;;;1.60;;
6374;SDS011;35400;45.472;-122.822;2022-07-22T06:24:34;1.70;;;1.60;;
6374;SDS011;35400;45.472;-122.822;2022-07-22T06:27:01;2.80;;;1.73;;
6374;SDS011;35400;45.472;-122.822;2022-07-22T06:29:27;3.07;;;1.70;;
6374;SDS011;35400;45.472;-122.822;2022-07-22T06:31:54;3.47;;;2.00;;
6374;SDS011;35400;45.472;-122.822;2022-07-22T06:34:20;1.63;;;1.53;;
6374;SDS011;35400;45.472;-122.822;2022-07-22T06:36:47;2.53;;;1.60;;
6374;SDS011;35400;45.472;-122.822;2022-07-22T06:39:13;2.50;;;1.73;;
6374;SDS011;35400;45.472;-122.822;2022-07-22T06:41:39;4.10;;;1.80;;
6374;SDS011;35400;45.472;-122.822;2022-07-22T06:44:06;2.50;;;1.77;;
6374;SDS011;35400;45.472;-122.822;2022-07-22T06:46:32;1.40;;;1.30;;
6374;SDS011;35400;45.472;-122.822;2022-07-22T06:48:59;3.53;;;1.70;;
6374;SDS011;35400;45.472;-122.822;2022-07-22T06:51:25;1.70;;;1.60;;
6374;SDS011;35400;45.472;-122.822;2022-07-22T06:53:51;2.00;;;1.70;;
6374;SDS011;35400;45.472;-122.822;2022-07-22T06:56:18;1.60;;;1.50;;
6374;SDS011;35400;45.472;-122.822;2022-07-22T06:58:44;2.10;;;1.60;;
6374;SDS011;35400;45.472;-122.822;2022-07-22T07:01:11;1.80;;;1.70;;
6374;SDS011;35400;45.472;-122.822;2022-07-22T07:03:38;1.40;;;1.27;;
6374;SDS011;35400;45.472;-122.822;2022-07-22T07:06:06;3.07;;;1.60;;
6374;SDS011;35400;45.472;-122.822;2022-07-22T07:08:34;2.20;;;1.50;;
6374;SDS011;35400;45.472;-122.822;2022-07-22T07:11:00;3.53;;;1.93;;
6374;SDS011;35400;45.472;-122.822;2022-07-22T07:13:27;1.60;;;1.50;;
6374;SDS011;35400;45.472;-122.822;2022-07-22T07:15:53;2.20;;;1.40;;
6374;SDS011;35400;45.472;-122.822;2022-07-22T07:18:20;2.40;;;1.60;;
6374;SDS011;35400;45.472;-122.822;2022-07-22T07:20:46;2.00;;;1.77;;
6374;SDS011;35400;45.472;-122.822;2022-07-22T07:23:13;2.33;;;1.60;;
6374;SDS011;35400;45.472;-122.822;2022-07-22T07:25:40;2.10;;;1.70;;
6374;SDS011;35400;45.472;-122.822;2022-07-22T07:28:07;2.53;;;1.50;;
6374;SDS011;35400;45.472;-122.822;2022-07-22T07:30:33;3.00;;;1.73;;
6374;SDS011;35400;45.472;-122.822;2022-07-22T07:33:00;1.70;;;1.50;;
6374;SDS011;35400;45.472;-122.822;2022-07-22T07:35:27;1.80;;;1.63;;
6374;SDS011;35400;45.472;-122.822;2022-07-22T07:37:54;2.50;;;1.97;;
6374;SDS011;35400;45.472;-122.822;2022-07-22T07:40:20;1.77;;;1.60;;
6374;SDS011;35400;45.472;-122.822;2022-07-22T07:42:47;2.03;;;1.60;;
6374;SDS011;35400;45.472;-122.822;2022-07-22T07:45:13;3.20;;;1.50;;
6374;SDS011;35400;45.472;-122.822;2022-07-22T07:47:40;2.77;;;1.73;;
6374;SDS011;35400;45.472;-122.822;2022-07-22T07:50:06;1.30;;;1.20;;
6374;SDS011;35400;45.472;-122.822;2022-07-22T07:52:40;3.97;;;1.80;;
6374;SDS011;35400;45.472;-122.822;2022-07-22T07:55:08;3.57;;;1.63;;
6374;SDS011;35400;45.472;-122.822;2022-07-22T07:57:36;2.10;;;1.67;;
6374;SDS011;35400;45.472;-122.822;2022-07-22T08:00:03;2.23;;;1.47;;
6374;SDS011;35400;45.472;-122.822;2022-07-22T08:02:32;2.80;;;1.47;;
6374;SDS011;35400;45.472;-122.822;2022-07-22T08:04:59;1.57;;;1.47;;
6374;SDS011;35400;45.472;-122.822;2022-07-22T08:07:26;2.60;;;1.50;;
6374;SDS011;35400;45.472;-122.822;2022-07-22T08:09:54;4.10;;;1.60;;
6374;SDS011;35400;45.472;-122.822;2022-07-22T08:12:20;2.80;;;1.60;;
6374;SDS011;35400;45.472;-122.822;2022-07-22T08:14:47;3.60;;;1.80;;
6374;SDS011;35400;45.472;-122.822;2022-07-22T08:17:13;3.53;;;1.63;;
6374;SDS011;35400;45.472;-122.822;2022-07-22T08:19:40;2.80;;;1.47;;
6374;SDS011;35400;45.472;-122.822;2022-07-22T08:22:06;2.80;;;1.67;;
6374;SDS011;35400;45.472;-122.822;2022-07-22T08:24:32;2.77;;;1.70;;
6374;SDS011;35400;45.472;-122.822;2022-07-22T08:26:59;4.67;;;1.77;;
6374;SDS011;35400;45.472;-122.822;2022-07-22T08:29:27;1.83;;;1.30;;
6374;SDS011;35400;45.472;-122.822;2022-07-22T08:31:53;1.90;;;1.30;;
6374;SDS011;35400;45.472;-122.822;2022-07-22T08:34:20;2.93;;;1.33;;
6374;SDS011;35400;45.472;-122.822;2022-07-22T08:36:46;1.70;;;1.50;;
6374;SDS011;35400;45.472;-122.822;2022-07-22T08:39:13;3.43;;;1.57;;
6374;SDS011;35400;45.472;-122.822;2022-07-22T08:41:39;3.23;;;1.50;;
6374;SDS011;35400;45.472;-122.822;2022-07-22T08:44:07;2.70;;;1.23;;
6374;SDS011;35400;45.472;-122.822;2022-07-22T08:46:34;3.70;;;1.50;;
6374;SDS011;35400;45.472;-122.822;2022-07-22T08:49:01;3.53;;;1.63;;
6374;SDS011;35400;45.472;-122.822;2022-07-22T08:51:28;2.67;;;1.33;;
6374;SDS011;35400;45.472;-122.822;2022-07-22T08:53:55;2.03;;;1.60;;
6374;SDS011;35400;45.472;-122.822;2022-07-22T08:56:21;2.30;;;1.63;;
6374;SDS011;35400;45.472;-122.822;2022-07-22T08:58:47;2.13;;;1.20;;
6374;SDS011;35400;45.472;-122.822;2022-07-22T09:01:15;1.87;;;1.47;;
6374;SDS011;35400;45.472;-122.822;2022-07-22T09:03:50;3.87;;;1.53;;
6374;SDS011;35400;45.472;-122.822;2022-07-22T09:06:21;2.60;;;1.70;;
6374;SDS011;35400;45.472;-122.822;2022-07-22T09:08:56;1.30;;;1.20;;
6374;SDS011;35400;45.472;-122.822;2022-07-22T09:11:26;2.30;;;1.30;;
6374;SDS011;35400;45.472;-122.822;2022-07-22T09:13:57;3.70;;;1.20;;
6374;SDS011;35400;45.472;-122.822;2022-07-22T09:17:07;1.40;;;1.30;;
6374;SDS011;35400;45.472;-122.822;2022-07-22T09:19:14;1.43;;;1.23;;
6374;SDS011;35400;45.472;-122.822;2022-07-22T09:21:41;1.93;;;1.33;;
6374;SDS011;35400;45.472;-122.822;2022-07-22T09:24:33;1.30;;;1.20;;
6374;SDS011;35400;45.472;-122.822;2022-07-22T09:26:59;2.40;;;1.40;;
6374;SDS011;35400;45.472;-122.822;2022-07-22T09:29:26;1.50;;;1.10;;
6374;SDS011;35400;45.472;-122.822;2022-07-22T09:31:52;1.90;;;1.43;;
6374;SDS011;35400;45.472;-122.822;2022-07-22T09:34:29;2.17;;;1.20;;
6374;SDS011;35400;45.472;-122.822;2022-07-22T09:36:58;1.70;;;1.40;;
6374;SDS011;35400;45.472;-122.822;2022-07-22T09:41:59;1.97;;;1.30;;
6374;SDS011;35400;45.472;-122.822;2022-07-22T09:44:29;1.33;;;1.10;;
6374;SDS011;35400;45.472;-122.822;2022-07-22T09:46:56;1.40;;;1.30;;
6374;SDS011;35400;45.472;-122.822;2022-07-22T09:51:59;1.00;;;1.00;;
6374;SDS011;35400;45.472;-122.822;2022-07-22T09:54:30;1.43;;;1.10;;
6374;SDS011;35400;45.472;-122.822;2022-07-22T09:56:57;2.10;;;1.30;;
6374;SDS011;35400;45.472;-122.822;2022-07-22T09:59:24;2.43;;;1.13;;
6374;SDS011;35400;45.472;-122.822;2022-07-22T10:01:55;2.07;;;1.20;;
6374;SDS011;35400;45.472;-122.822;2022-07-22T10:04:24;1.40;;;1.23;;
6374;SDS011;35400;45.472;-122.822;2022-07-22T10:06:54;1.20;;;1.10;;
6374;SDS011;35400;45.472;-122.822;2022-07-22T10:09:21;2.13;;;1.13;;
6374;SDS011;35400;45.472;-122.822;2022-07-22T10:11:48;1.50;;;1.13;;
6374;SDS011;35400;45.472;-122.822;2022-07-22T10:14:17;2.03;;;1.47;;
6374;SDS011;35400;45.472;-122.822;2022-07-22T10:16:43;2.70;;;1.50;;
6374;SDS011;35400;45.472;-122.822;2022-07-22T10:19:10;1.30;;;1.20;;
6374;SDS011;35400;45.472;-122.822;2022-07-22T10:21:37;1.23;;;1.13;;
6374;SDS011;35400;45.472;-122.822;2022-07-22T10:24:14;1.53;;;1.40;;
6374;SDS011;35400;45.472;-122.822;2022-07-22T10:26:52;1.77;;;1.43;;
6374;SDS011;35400;45.472;-122.822;2022-07-22T10:29:26;2.63;;;1.40;;
6374;SDS011;35400;45.472;-122.822;2022-07-22T10:45:32;2.50;;;1.37;;
6374;SDS011;35400;45.472;-122.822;2022-07-22T10:48:06;1.30;;;1.20;;
6374;SDS011;35400;45.472;-122.822;2022-07-22T10:53:03;2.00;;;1.20;;
6374;SDS011;35400;45.472;-122.822;2022-07-22T10:55:34;1.57;;;1.20;;
6374;SDS011;35400;45.472;-122.822;2022-07-22T10:59:06;1.60;;;1.30;;
6374;SDS011;35400;45.472;-122.822;2022-07-22T11:00:57;3.10;;;1.07;;
6374;SDS011;35400;45.472;-122.822;2022-07-22T11:03:26;1.37;;;1.20;;
6374;SDS011;35400;45.472;-122.822;2022-07-22T11:08:48;1.00;;;1.00;;
6374;SDS011;35400;45.472;-122.822;2022-07-22T11:11:17;1.83;;;1.23;;
6374;SDS011;35400;45.472;-122.822;2022-07-22T11:13:44;1.10;;;1.00;;
6374;SDS011;35400;45.472;-122.822;2022-07-22T11:18:58;2.17;;;0.80;;
6374;SDS011;35400;45.472;-122.822;2022-07-22T11:21:27;1.90;;;1.20;;
6374;SDS011;35400;45.472;-122.822;2022-07-22T11:23:57;1.20;;;1.10;;
6374;SDS011;35400;45.472;-122.822;2022-07-22T11:29:08;1.50;;;0.90;;
6374;SDS011;35400;45.472;-122.822;2022-07-22T11:31:35;1.63;;;1.27;;
6374;SDS011;35400;45.472;-122.822;2022-07-22T11:34:12;1.33;;;0.90;;
6374;SDS011;35400;45.472;-122.822;2022-07-22T11:36:41;0.90;;;0.90;;
6374;SDS011;35400;45.472;-122.822;2022-07-22T11:39:11;1.20;;;1.10;;
6374;SDS011;35400;45.472;-122.822;2022-07-22T11:41:39;1.63;;;1.13;;
6374;SDS011;35400;45.472;-122.822;2022-07-22T11:44:06;0.90;;;0.87;;
6374;SDS011;35400;45.472;-122.822;2022-07-22T11:46:40;1.10;;;1.00;;
6374;SDS011;35400;45.472;-122.822;2022-07-22T11:49:08;1.10;;;1.00;;
6374;SDS011;35400;45.472;-122.822;2022-07-22T11:51:38;0.93;;;0.83;;
6374;SDS011;35400;45.472;-122.822;2022-07-22T11:54:05;1.00;;;0.90;;
6374;SDS011;35400;45.472;-122.822;2022-07-22T11:56:32;1.27;;;1.03;;
6374;SDS011;35400;45.472;-122.822;2022-07-22T11:58:59;0.87;;;0.83;;
6374;SDS011;35400;45.472;-122.822;2022-07-22T12:01:31;0.80;;;0.80;;
6374;SDS011;35400;45.472;-122.822;2022-07-22T12:03:59;2.03;;;1.00;;
6374;SDS011;35400;45.472;-122.822;2022-07-22T12:06:31;0.90;;;0.90;;
6374;SDS011;35400;45.472;-122.822;2022-07-22T12:09:02;1.83;;;0.90;;
6374;SDS011;35400;45.472;-122.822;2022-07-22T12:11:31;2.67;;;0.90;;
6374;SDS011;35400;45.472;-122.822;2022-07-22T12:14:01;1.23;;;1.10;;
6374;SDS011;35400;45.472;-122.822;2022-07-22T12:16:34;0.80;;;0.80;;
6374;SDS011;35400;45.472;-122.822;2022-07-22T12:19:06;1.50;;;1.10;;
6374;SDS011;35400;45.472;-122.822;2022-07-22T12:21:48;1.50;;;1.00;;
6374;SDS011;35400;45.472;-122.822;2022-07-22T12:24:31;1.53;;;1.00;;
6374;SDS011;35400;45.472;-122.822;2022-07-22T12:27:01;1.33;;;0.80;;
6374;SDS011;35400;45.472;-122.822;2022-07-22T12:32:45;1.37;;;0.93;;
6374;SDS011;35400;45.472;-122.822;2022-07-22T12:37:33;2.57;;;0.80;;
6374;SDS011;35400;45.472;-122.822;2022-07-22T12:42:44;0.70;;;0.70;;
6374;SDS011;35400;45.472;-122.822;2022-07-22T12:45:16;0.77;;;0.77;;
6374;SDS011;35400;45.472;-122.822;2022-07-22T12:47:47;2.17;;;0.90;;
6374;SDS011;35400;45.472;-122.822;2022-07-22T12:50:24;1.57;;;0.87;;
6374;SDS011;35400;45.472;-122.822;2022-07-22T12:52:56;0.87;;;0.80;;
6374;SDS011;35400;45.472;-122.822;2022-07-22T12:55:34;1.27;;;0.90;;
6374;SDS011;35400;45.472;-122.822;2022-07-22T12:58:05;1.70;;;0.73;;
6374;SDS011;35400;45.472;-122.822;2022-07-22T13:00:33;1.27;;;1.00;;
6374;SDS011;35400;45.472;-122.822;2022-07-22T13:03:05;1.43;;;0.80;;
6374;SDS011;35400;45.472;-122.822;2022-07-22T13:05:31;1.83;;;0.80;;
6374;SDS011;35400;45.472;-122.822;2022-07-22T13:07:59;0.90;;;0.90;;
6374;SDS011;35400;45.472;-122.822;2022-07-22T13:10:25;1.40;;;0.67;;
6374;SDS011;35400;45.472;-122.822;2022-07-22T13:12:52;0.80;;;0.80;;
6374;SDS011;35400;45.472;-122.822;2022-07-22T13:15:20;1.77;;;0.70;;
6374;SDS011;35400;45.472;-122.822;2022-07-22T13:17:47;0.93;;;0.83;;
6374;SDS011;35400;45.472;-122.822;2022-07-22T13:20:15;1.97;;;0.70;;
6374;SDS011;35400;45.472;-122.822;2022-07-22T13:22:46;1.60;;;0.73;;
6374;SDS011;35400;45.472;-122.822;2022-07-22T13:25:13;0.77;;;0.77;;
6374;SDS011;35400;45.472;-122.822;2022-07-22T13:27:40;2.07;;;0.93;;
6374;SDS011;35400;45.472;-122.822;2022-07-22T13:30:07;2.60;;;0.70;;
6374;SDS011;35400;45.472;-122.822;2022-07-22T13:32:33;1.80;;;0.80;;
6374;SDS011;35400;45.472;-122.822;2022-07-22T13:35:00;1.40;;;0.70;;
6374;SDS011;35400;45.472;-122.822;2022-07-22T13:37:27;1.97;;;0.97;;
6374;SDS011;35400;45.472;-122.822;2022-07-22T13:39:53;0.87;;;0.50;;
6374;SDS011;35400;45.472;-122.822;2022-07-22T13:42:20;0.93;;;0.80;;
6374;SDS011;35400;45.472;-122.822;2022-07-22T13:44:47;2.57;;;0.90;;
6374;SDS011;35400;45.472;-122.822;2022-07-22T13:47:16;1.53;;;1.00;;
6374;SDS011;35400;45.472;-122.822;2022-07-22T13:49:43;0.97;;;0.77;;
6374;SDS011;35400;45.472;-122.822;2022-07-22T13:52:12;0.70;;;0.70;;
6374;SDS011;35400;45.472;-122.822;2022-07-22T13:54:39;1.53;;;0.70;;
6374;SDS011;35400;45.472;-122.822;2022-07-22T13:57:05;1.20;;;0.60;;
6374;SDS011;35400;45.472;-122.822;2022-07-22T13:59:32;1.27;;;0.50;;
6374;SDS011;35400;45.472;-122.822;2022-07-22T14:01:59;1.43;;;0.90;;
6374;SDS011;35400;45.472;-122.822;2022-07-22T14:04:26;2.70;;;0.80;;
6374;SDS011;35400;45.472;-122.822;2022-07-22T14:06:53;0.90;;;0.60;;
6374;SDS011;35400;45.472;-122.822;2022-07-22T14:09:20;0.83;;;0.83;;
6374;SDS011;35400;45.472;-122.822;2022-07-22T14:11:46;0.70;;;0.70;;
6374;SDS011;35400;45.472;-122.822;2022-07-22T14:14:13;0.70;;;0.70;;
6374;SDS011;35400;45.472;-122.822;2022-07-22T14:16:39;0.80;;;0.80;;
6374;SDS011;35400;45.472;-122.822;2022-07-22T14:19:07;0.60;;;0.60;;
6374;SDS011;35400;45.472;-122.822;2022-07-22T14:21:35;0.70;;;0.70;;
6374;SDS011;35400;45.472;-122.822;2022-07-22T14:24:03;0.80;;;0.80;;
6374;SDS011;35400;45.472;-122.822;2022-07-22T14:26:31;1.33;;;0.80;;
6374;SDS011;35400;45.472;-122.822;2022-07-22T14:28:58;1.03;;;0.60;;
6374;SDS011;35400;45.472;-122.822;2022-07-22T14:31:25;0.80;;;0.80;;
6374;SDS011;35400;45.472;-122.822;2022-07-22T14:33:53;0.80;;;0.80;;
6374;SDS011;35400;45.472;-122.822;2022-07-22T14:36:20;2.20;;;0.70;;
6374;SDS011;35400;45.472;-122.822;2022-07-22T14:38:47;0.83;;;0.60;;
6374;SDS011;35400;45.472;-122.822;2022-07-22T14:41:15;0.73;;;0.73;;
6374;SDS011;35400;45.472;-122.822;2022-07-22T14:43:42;1.33;;;0.70;;
6374;SDS011;35400;45.472;-122.822;2022-07-22T14:46:09;1.40;;;0.80;;
6374;SDS011;35400;45.472;-122.822;2022-07-22T14:48:36;2.47;;;0.80;;
6374;SDS011;35400;45.472;-122.822;2022-07-22T14:51:04;1.93;;;0.70;;
6374;SDS011;35400;45.472;-122.822;2022-07-22T14:53:30;0.80;;;0.70;;
6374;SDS011;35400;45.472;-122.822;2022-07-22T14:55:57;0.70;;;0.70;;
6374;SDS011;35400;45.472;-122.822;2022-07-22T14:58:24;1.40;;;0.63;;
6374;SDS011;35400;45.472;-122.822;2022-07-22T15:00:50;0.70;;;0.70;;